sensor_id;sensor_type;location;lat;lon;timestamp;P1;durP1;ratioP1;P2;durP2;ratioP2
80503;SDS011;69825;51.190;6.808;2023-05-21T00:02:03;1.40;;;1.30;;
80503;SDS011;69825;51.190;6.808;2023-05-21T00:04:29;1.42;;;1.33;;
80503;SDS011;69825;51.190;6.808;2023-05-21T00:06:56;1.60;;;1.50;;
80503;SDS011;69825;51.190;6.808;2023-05-21T00:09:22;1.20;;;1.15;;
80503;SDS011;69825;51.190;6.808;2023-05-21T00:11:48;1.48;;;1.40;;
80503;SDS011;69825;51.190;6.808;2023-05-21T00:14:14;1.45;;;1.35;;
80503;SDS011;69825;51.190;6.808;2023-05-21T00:16:39;1.45;;;1.40;;
80503;SDS011;69825;51.190;6.808;2023-05-21T00:19:05;1.30;;;1.30;;
80503;SDS011;69825;51.190;6.808;2023-05-21T00:21:30;1.40;;;1.30;;
80503;SDS011;69825;51.190;6.808;2023-05-21T00:23:55;1.50;;;1.40;;
80503;SDS011;69825;51.190;6.808;2023-05-21T00:26:21;1.60;;;1.50;;
80503;SDS011;69825;51.190;6.808;2023-05-21T00:28:48;1.33;;;1.33;;
80503;SDS011;69825;51.190;6.808;2023-05-21T00:31:13;1.35;;;1.33;;
80503;SDS011;69825;51.190;6.808;2023-05-21T00:33:39;1.30;;;1.30;;
80503;SDS011;69825;51.190;6.808;2023-05-21T00:36:05;1.65;;;1.55;;
80503;SDS011;69825;51.190;6.808;2023-05-21T00:38:31;1.35;;;1.35;;
80503;SDS011;69825;51.190;6.808;2023-05-21T00:40:59;1.42;;;1.33;;
80503;SDS011;69825;51.190;6.808;2023-05-21T00:43:26;1.50;;;1.40;;
80503;SDS011;69825;51.190;6.808;2023-05-21T00:45:51;1.73;;;1.63;;
80503;SDS011;69825;51.190;6.808;2023-05-21T00:48:17;1.30;;;1.30;;
80503;SDS011;69825;51.190;6.808;2023-05-21T00:50:44;1.60;;;1.50;;
80503;SDS011;69825;51.190;6.808;2023-05-21T00:53:10;1.33;;;1.30;;
80503;SDS011;69825;51.190;6.808;2023-05-21T00:55:36;1.55;;;1.45;;
80503;SDS011;69825;51.190;6.808;2023-05-21T00:58:02;1.50;;;1.40;;
80503;SDS011;69825;51.190;6.808;2023-05-21T01:00:29;1.65;;;1.55;;
80503;SDS011;69825;51.190;6.808;2023-05-21T01:02:59;1.55;;;1.50;;
80503;SDS011;69825;51.190;6.808;2023-05-21T01:05:28;1.63;;;1.52;;
80503;SDS011;69825;51.190;6.808;2023-05-21T01:07:54;1.30;;;1.30;;
80503;SDS011;69825;51.190;6.808;2023-05-21T01:10:22;1.30;;;1.30;;
80503;SDS011;69825;51.190;6.808;2023-05-21T01:12:48;1.40;;;1.40;;
80503;SDS011;69825;51.190;6.808;2023-05-21T01:15:14;1.42;;;1.33;;
80503;SDS011;69825;51.190;6.808;2023-05-21T01:17:39;1.38;;;1.30;;
80503;SDS011;69825;51.190;6.808;2023-05-21T01:20:06;1.70;;;1.60;;
80503;SDS011;69825;51.190;6.808;2023-05-21T01:22:36;1.60;;;1.50;;
80503;SDS011;69825;51.190;6.808;2023-05-21T01:25:05;1.48;;;1.40;;
80503;SDS011;69825;51.190;6.808;2023-05-21T01:27:31;1.30;;;1.30;;
80503;SDS011;69825;51.190;6.808;2023-05-21T01:29:56;1.60;;;1.50;;
80503;SDS011;69825;51.190;6.808;2023-05-21T01:37:43;1.45;;;1.45;;
80503;SDS011;69825;51.190;6.808;2023-05-21T01:42:58;1.35;;;1.35;;
80503;SDS011;69825;51.190;6.808;2023-05-21T01:45:24;1.40;;;1.40;;
80503;SDS011;69825;51.190;6.808;2023-05-21T01:47:52;1.50;;;1.45;;
80503;SDS011;69825;51.190;6.808;2023-05-21T01:50:18;1.60;;;1.50;;
80503;SDS011;69825;51.190;6.808;2023-05-21T01:52:48;1.48;;;1.48;;
80503;SDS011;69825;51.190;6.808;2023-05-21T01:55:16;1.33;;;1.33;;
80503;SDS011;69825;51.190;6.808;2023-05-21T01:57:42;1.20;;;1.20;;
80503;SDS011;69825;51.190;6.808;2023-05-21T02:00:07;1.60;;;1.50;;
80503;SDS011;69825;51.190;6.808;2023-05-21T02:02:34;1.40;;;1.40;;
80503;SDS011;69825;51.190;6.808;2023-05-21T02:05:00;1.65;;;1.55;;
80503;SDS011;69825;51.190;6.808;2023-05-21T02:07:25;1.60;;;1.50;;
80503;SDS011;69825;51.190;6.808;2023-05-21T02:09:53;1.60;;;1.50;;
80503;SDS011;69825;51.190;6.808;2023-05-21T02:12:18;1.70;;;1.60;;
80503;SDS011;69825;51.190;6.808;2023-05-21T02:14:43;1.50;;;1.40;;
80503;SDS011;69825;51.190;6.808;2023-05-21T02:17:10;1.80;;;1.70;;
80503;SDS011;69825;51.190;6.808;2023-05-21T02:19:35;1.60;;;1.50;;
80503;SDS011;69825;51.190;6.808;2023-05-21T02:22:01;1.50;;;1.40;;
80503;SDS011;69825;51.190;6.808;2023-05-21T02:24:26;1.50;;;1.40;;
80503;SDS011;69825;51.190;6.808;2023-05-21T02:26:51;1.65;;;1.55;;
80503;SDS011;69825;51.190;6.808;2023-05-21T02:29:17;1.48;;;1.40;;
80503;SDS011;69825;51.190;6.808;2023-05-21T02:31:42;1.60;;;1.50;;
80503;SDS011;69825;51.190;6.808;2023-05-21T02:34:07;1.60;;;1.50;;
80503;SDS011;69825;51.190;6.808;2023-05-21T02:36:33;1.30;;;1.30;;
80503;SDS011;69825;51.190;6.808;2023-05-21T02:39:00;1.63;;;1.52;;
80503;SDS011;69825;51.190;6.808;2023-05-21T02:41:25;1.70;;;1.60;;
80503;SDS011;69825;51.190;6.808;2023-05-21T02:43:51;1.65;;;1.55;;
80503;SDS011;69825;51.190;6.808;2023-05-21T02:46:16;1.60;;;1.50;;
80503;SDS011;69825;51.190;6.808;2023-05-21T02:48:41;1.60;;;1.50;;
80503;SDS011;69825;51.190;6.808;2023-05-21T02:51:07;1.70;;;1.60;;
80503;SDS011;69825;51.190;6.808;2023-05-21T02:53:32;1.70;;;1.60;;
80503;SDS011;69825;51.190;6.808;2023-05-21T02:55:57;1.75;;;1.65;;
80503;SDS011;69825;51.190;6.808;2023-05-21T02:58:23;1.88;;;1.77;;
80503;SDS011;69825;51.190;6.808;2023-05-21T03:00:49;1.60;;;1.50;;
80503;SDS011;69825;51.190;6.808;2023-05-21T03:03:14;1.77;;;1.67;;
80503;SDS011;69825;51.190;6.808;2023-05-21T03:05:40;1.58;;;1.50;;
80503;SDS011;69825;51.190;6.808;2023-05-21T03:08:05;1.67;;;1.58;;
80503;SDS011;69825;51.190;6.808;2023-05-21T03:10:31;1.70;;;1.60;;
80503;SDS011;69825;51.190;6.808;2023-05-21T03:12:57;1.73;;;1.63;;
80503;SDS011;69825;51.190;6.808;2023-05-21T03:15:22;1.58;;;1.48;;
80503;SDS011;69825;51.190;6.808;2023-05-21T03:17:48;1.75;;;1.65;;
80503;SDS011;69825;51.190;6.808;2023-05-21T03:20:14;1.45;;;1.45;;
80503;SDS011;69825;51.190;6.808;2023-05-21T03:22:43;1.60;;;1.50;;
80503;SDS011;69825;51.190;6.808;2023-05-21T03:25:09;2.00;;;1.90;;
80503;SDS011;69825;51.190;6.808;2023-05-21T03:27:36;1.58;;;1.48;;
80503;SDS011;69825;51.190;6.808;2023-05-21T03:30:02;1.73;;;1.63;;
80503;SDS011;69825;51.190;6.808;2023-05-21T03:32:27;1.80;;;1.70;;
80503;SDS011;69825;51.190;6.808;2023-05-21T03:34:53;1.65;;;1.55;;
80503;SDS011;69825;51.190;6.808;2023-05-21T03:37:18;1.40;;;1.40;;
80503;SDS011;69825;51.190;6.808;2023-05-21T03:39:43;1.42;;;1.40;;
80503;SDS011;69825;51.190;6.808;2023-05-21T03:42:09;1.67;;;1.58;;
80503;SDS011;69825;51.190;6.808;2023-05-21T03:44:34;1.70;;;1.60;;
80503;SDS011;69825;51.190;6.808;2023-05-21T03:46:59;1.60;;;1.50;;
80503;SDS011;69825;51.190;6.808;2023-05-21T03:49:25;1.83;;;1.73;;
80503;SDS011;69825;51.190;6.808;2023-05-21T03:51:50;1.60;;;1.50;;
80503;SDS011;69825;51.190;6.808;2023-05-21T03:54:16;1.70;;;1.60;;
80503;SDS011;69825;51.190;6.808;2023-05-21T03:56:41;1.60;;;1.50;;
80503;SDS011;69825;51.190;6.808;2023-05-21T03:59:06;1.80;;;1.70;;
80503;SDS011;69825;51.190;6.808;2023-05-21T04:01:32;1.60;;;1.50;;
80503;SDS011;69825;51.190;6.808;2023-05-21T04:03:57;1.60;;;1.50;;
80503;SDS011;69825;51.190;6.808;2023-05-21T04:06:22;1.65;;;1.55;;
80503;SDS011;69825;51.190;6.808;2023-05-21T04:08:48;1.70;;;1.60;;
80503;SDS011;69825;51.190;6.808;2023-05-21T04:11:13;1.77;;;1.67;;
80503;SDS011;69825;51.190;6.808;2023-05-21T04:13:39;1.70;;;1.60;;
80503;SDS011;69825;51.190;6.808;2023-05-21T04:16:04;1.67;;;1.58;;
80503;SDS011;69825;51.190;6.808;2023-05-21T04:18:32;1.65;;;1.55;;
80503;SDS011;69825;51.190;6.808;2023-05-21T04:20:58;1.90;;;1.80;;
80503;SDS011;69825;51.190;6.808;2023-05-21T04:23:24;1.80;;;1.70;;
80503;SDS011;69825;51.190;6.808;2023-05-21T04:25:50;1.80;;;1.70;;
80503;SDS011;69825;51.190;6.808;2023-05-21T04:28:15;1.75;;;1.65;;
80503;SDS011;69825;51.190;6.808;2023-05-21T04:30:43;1.70;;;1.60;;
80503;SDS011;69825;51.190;6.808;2023-05-21T04:33:10;1.60;;;1.50;;
80503;SDS011;69825;51.190;6.808;2023-05-21T04:35:35;1.65;;;1.55;;
80503;SDS011;69825;51.190;6.808;2023-05-21T04:38:00;1.80;;;1.70;;
80503;SDS011;69825;51.190;6.808;2023-05-21T04:40:26;1.50;;;1.40;;
80503;SDS011;69825;51.190;6.808;2023-05-21T04:42:51;2.00;;;1.60;;
80503;SDS011;69825;51.190;6.808;2023-05-21T04:45:16;1.52;;;1.45;;
80503;SDS011;69825;51.190;6.808;2023-05-21T04:47:42;1.80;;;1.70;;
80503;SDS011;69825;51.190;6.808;2023-05-21T04:50:08;1.80;;;1.70;;
80503;SDS011;69825;51.190;6.808;2023-05-21T04:52:34;1.70;;;1.60;;
80503;SDS011;69825;51.190;6.808;2023-05-21T04:55:00;1.95;;;1.85;;
80503;SDS011;69825;51.190;6.808;2023-05-21T04:57:26;1.77;;;1.67;;
80503;SDS011;69825;51.190;6.808;2023-05-21T04:59:53;1.60;;;1.50;;
80503;SDS011;69825;51.190;6.808;2023-05-21T05:02:18;1.77;;;1.67;;
80503;SDS011;69825;51.190;6.808;2023-05-21T05:04:44;1.67;;;1.58;;
80503;SDS011;69825;51.190;6.808;2023-05-21T05:07:10;1.60;;;1.50;;
80503;SDS011;69825;51.190;6.808;2023-05-21T05:09:36;1.80;;;1.70;;
80503;SDS011;69825;51.190;6.808;2023-05-21T05:12:01;1.60;;;1.50;;
80503;SDS011;69825;51.190;6.808;2023-05-21T05:14:26;1.70;;;1.60;;
80503;SDS011;69825;51.190;6.808;2023-05-21T05:16:52;1.80;;;1.70;;
80503;SDS011;69825;51.190;6.808;2023-05-21T05:19:18;1.63;;;1.52;;
80503;SDS011;69825;51.190;6.808;2023-05-21T05:21:43;2.00;;;1.90;;
80503;SDS011;69825;51.190;6.808;2023-05-21T05:24:08;1.65;;;1.55;;
80503;SDS011;69825;51.190;6.808;2023-05-21T05:26:34;1.70;;;1.60;;
80503;SDS011;69825;51.190;6.808;2023-05-21T05:28:59;1.60;;;1.50;;
80503;SDS011;69825;51.190;6.808;2023-05-21T05:31:25;1.40;;;1.40;;
80503;SDS011;69825;51.190;6.808;2023-05-21T05:33:50;1.85;;;1.75;;
80503;SDS011;69825;51.190;6.808;2023-05-21T05:36:15;1.58;;;1.48;;
80503;SDS011;69825;51.190;6.808;2023-05-21T05:38:41;1.70;;;1.60;;
80503;SDS011;69825;51.190;6.808;2023-05-21T05:41:06;1.63;;;1.52;;
80503;SDS011;69825;51.190;6.808;2023-05-21T05:43:31;1.65;;;1.55;;
80503;SDS011;69825;51.190;6.808;2023-05-21T05:45:57;1.70;;;1.60;;
80503;SDS011;69825;51.190;6.808;2023-05-21T05:48:22;1.70;;;1.60;;
80503;SDS011;69825;51.190;6.808;2023-05-21T05:50:47;1.80;;;1.70;;
80503;SDS011;69825;51.190;6.808;2023-05-21T05:53:13;1.60;;;1.50;;
80503;SDS011;69825;51.190;6.808;2023-05-21T05:55:38;1.65;;;1.55;;
80503;SDS011;69825;51.190;6.808;2023-05-21T05:58:04;1.70;;;1.60;;
80503;SDS011;69825;51.190;6.808;2023-05-21T06:00:30;1.65;;;1.55;;
80503;SDS011;69825;51.190;6.808;2023-05-21T06:02:55;1.80;;;1.70;;
80503;SDS011;69825;51.190;6.808;2023-05-21T06:05:21;1.80;;;1.70;;
80503;SDS011;69825;51.190;6.808;2023-05-21T06:07:46;1.90;;;1.80;;
80503;SDS011;69825;51.190;6.808;2023-05-21T06:10:11;1.60;;;1.50;;
80503;SDS011;69825;51.190;6.808;2023-05-21T06:12:37;1.80;;;1.70;;
80503;SDS011;69825;51.190;6.808;2023-05-21T06:15:03;1.70;;;1.60;;
80503;SDS011;69825;51.190;6.808;2023-05-21T06:17:29;1.80;;;1.70;;
80503;SDS011;69825;51.190;6.808;2023-05-21T06:19:55;1.90;;;1.80;;
80503;SDS011;69825;51.190;6.808;2023-05-21T06:22:20;1.60;;;1.50;;
80503;SDS011;69825;51.190;6.808;2023-05-21T06:24:45;1.60;;;1.50;;
80503;SDS011;69825;51.190;6.808;2023-05-21T06:27:11;1.70;;;1.60;;
80503;SDS011;69825;51.190;6.808;2023-05-21T06:29:36;1.73;;;1.63;;
80503;SDS011;69825;51.190;6.808;2023-05-21T06:32:02;1.60;;;1.50;;
80503;SDS011;69825;51.190;6.808;2023-05-21T06:34:27;1.67;;;1.58;;
80503;SDS011;69825;51.190;6.808;2023-05-21T06:36:53;1.73;;;1.63;;
80503;SDS011;69825;51.190;6.808;2023-05-21T06:39:18;1.52;;;1.42;;
80503;SDS011;69825;51.190;6.808;2023-05-21T06:41:43;1.52;;;1.45;;
80503;SDS011;69825;51.190;6.808;2023-05-21T06:44:09;1.70;;;1.60;;
80503;SDS011;69825;51.190;6.808;2023-05-21T06:46:34;1.60;;;1.50;;
80503;SDS011;69825;51.190;6.808;2023-05-21T06:49:00;1.20;;;1.20;;
80503;SDS011;69825;51.190;6.808;2023-05-21T06:51:25;1.70;;;1.60;;
80503;SDS011;69825;51.190;6.808;2023-05-21T06:53:51;1.80;;;1.70;;
80503;SDS011;69825;51.190;6.808;2023-05-21T06:56:16;1.70;;;1.60;;
80503;SDS011;69825;51.190;6.808;2023-05-21T06:58:42;1.83;;;1.73;;
80503;SDS011;69825;51.190;6.808;2023-05-21T07:01:07;1.73;;;1.63;;
80503;SDS011;69825;51.190;6.808;2023-05-21T07:03:33;1.40;;;1.30;;
80503;SDS011;69825;51.190;6.808;2023-05-21T07:06:00;1.67;;;1.58;;
80503;SDS011;69825;51.190;6.808;2023-05-21T07:08:25;2.15;;;2.05;;
80503;SDS011;69825;51.190;6.808;2023-05-21T07:10:51;1.63;;;1.52;;
80503;SDS011;69825;51.190;6.808;2023-05-21T07:13:16;1.50;;;1.40;;
80503;SDS011;69825;51.190;6.808;2023-05-21T07:15:41;1.88;;;1.45;;
80503;SDS011;69825;51.190;6.808;2023-05-21T07:18:07;1.80;;;1.70;;
80503;SDS011;69825;51.190;6.808;2023-05-21T07:20:32;1.65;;;1.55;;
80503;SDS011;69825;51.190;6.808;2023-05-21T07:22:57;1.60;;;1.50;;
80503;SDS011;69825;51.190;6.808;2023-05-21T07:25:23;1.40;;;1.40;;
80503;SDS011;69825;51.190;6.808;2023-05-21T07:27:48;1.65;;;1.55;;
80503;SDS011;69825;51.190;6.808;2023-05-21T07:30:14;1.60;;;1.58;;
80503;SDS011;69825;51.190;6.808;2023-05-21T07:32:39;1.75;;;1.65;;
80503;SDS011;69825;51.190;6.808;2023-05-21T07:35:05;1.70;;;1.60;;
80503;SDS011;69825;51.190;6.808;2023-05-21T07:37:31;1.85;;;1.75;;
80503;SDS011;69825;51.190;6.808;2023-05-21T07:39:56;1.50;;;1.40;;
80503;SDS011;69825;51.190;6.808;2023-05-21T07:42:25;1.40;;;1.40;;
80503;SDS011;69825;51.190;6.808;2023-05-21T07:44:50;1.55;;;1.50;;
80503;SDS011;69825;51.190;6.808;2023-05-21T07:47:15;1.60;;;1.50;;
80503;SDS011;69825;51.190;6.808;2023-05-21T07:49:41;1.70;;;1.60;;
80503;SDS011;69825;51.190;6.808;2023-05-21T07:52:06;1.88;;;1.77;;
80503;SDS011;69825;51.190;6.808;2023-05-21T07:54:31;1.70;;;1.60;;
80503;SDS011;69825;51.190;6.808;2023-05-21T07:56:57;1.70;;;1.60;;
80503;SDS011;69825;51.190;6.808;2023-05-21T07:59:23;1.70;;;1.60;;
80503;SDS011;69825;51.190;6.808;2023-05-21T08:01:49;1.60;;;1.50;;
80503;SDS011;69825;51.190;6.808;2023-05-21T08:04:14;1.80;;;1.70;;
80503;SDS011;69825;51.190;6.808;2023-05-21T08:06:39;1.60;;;1.50;;
80503;SDS011;69825;51.190;6.808;2023-05-21T08:09:05;1.67;;;1.58;;
80503;SDS011;69825;51.190;6.808;2023-05-21T08:11:30;1.90;;;1.80;;
80503;SDS011;69825;51.190;6.808;2023-05-21T08:13:56;1.60;;;1.50;;
80503;SDS011;69825;51.190;6.808;2023-05-21T08:16:22;1.65;;;1.55;;
80503;SDS011;69825;51.190;6.808;2023-05-21T08:18:48;1.45;;;1.45;;
80503;SDS011;69825;51.190;6.808;2023-05-21T08:21:14;1.52;;;1.42;;
80503;SDS011;69825;51.190;6.808;2023-05-21T08:23:39;1.60;;;1.50;;
80503;SDS011;69825;51.190;6.808;2023-05-21T08:26:04;2.00;;;1.90;;
80503;SDS011;69825;51.190;6.808;2023-05-21T08:28:30;1.67;;;1.58;;
80503;SDS011;69825;51.190;6.808;2023-05-21T08:30:56;1.48;;;1.38;;
80503;SDS011;69825;51.190;6.808;2023-05-21T08:33:21;1.55;;;1.45;;
80503;SDS011;69825;51.190;6.808;2023-05-21T08:35:47;1.60;;;1.50;;
80503;SDS011;69825;51.190;6.808;2023-05-21T08:38:12;1.67;;;1.58;;
80503;SDS011;69825;51.190;6.808;2023-05-21T08:40:37;1.60;;;1.50;;
80503;SDS011;69825;51.190;6.808;2023-05-21T08:43:03;1.20;;;1.20;;
80503;SDS011;69825;51.190;6.808;2023-05-21T08:45:29;1.77;;;1.67;;
80503;SDS011;69825;51.190;6.808;2023-05-21T08:48:01;1.35;;;1.35;;
80503;SDS011;69825;51.190;6.808;2023-05-21T08:50:27;1.80;;;1.70;;
80503;SDS011;69825;51.190;6.808;2023-05-21T08:52:53;1.70;;;1.60;;
80503;SDS011;69825;51.190;6.808;2023-05-21T08:55:19;1.40;;;1.40;;
80503;SDS011;69825;51.190;6.808;2023-05-21T08:57:46;1.58;;;1.48;;
80503;SDS011;69825;51.190;6.808;2023-05-21T09:00:12;1.60;;;1.50;;
80503;SDS011;69825;51.190;6.808;2023-05-21T09:02:38;1.80;;;1.70;;
80503;SDS011;69825;51.190;6.808;2023-05-21T09:05:08;1.50;;;1.50;;
80503;SDS011;69825;51.190;6.808;2023-05-21T09:08:18;1.67;;;1.58;;
80503;SDS011;69825;51.190;6.808;2023-05-21T09:10:45;1.80;;;1.70;;
80503;SDS011;69825;51.190;6.808;2023-05-21T09:13:13;1.92;;;1.83;;
80503;SDS011;69825;51.190;6.808;2023-05-21T09:15:41;1.55;;;1.50;;
80503;SDS011;69825;51.190;6.808;2023-05-21T09:18:06;1.60;;;1.50;;
80503;SDS011;69825;51.190;6.808;2023-05-21T09:20:32;1.60;;;1.50;;
80503;SDS011;69825;51.190;6.808;2023-05-21T09:22:58;1.45;;;1.42;;
80503;SDS011;69825;51.190;6.808;2023-05-21T09:25:27;1.63;;;1.52;;
80503;SDS011;69825;51.190;6.808;2023-05-21T09:27:56;1.63;;;1.52;;
80503;SDS011;69825;51.190;6.808;2023-05-21T09:30:22;1.60;;;1.50;;
80503;SDS011;69825;51.190;6.808;2023-05-21T09:32:51;1.70;;;1.60;;
80503;SDS011;69825;51.190;6.808;2023-05-21T09:35:18;1.65;;;1.55;;
80503;SDS011;69825;51.190;6.808;2023-05-21T09:37:46;1.80;;;1.70;;
80503;SDS011;69825;51.190;6.808;2023-05-21T09:40:13;1.58;;;1.48;;
80503;SDS011;69825;51.190;6.808;2023-05-21T09:42:41;1.65;;;1.55;;
80503;SDS011;69825;51.190;6.808;2023-05-21T09:45:08;1.50;;;1.50;;
80503;SDS011;69825;51.190;6.808;2023-05-21T09:47:39;1.67;;;1.58;;
80503;SDS011;69825;51.190;6.808;2023-05-21T09:50:09;1.90;;;1.80;;
80503;SDS011;69825;51.190;6.808;2023-05-21T09:52:35;1.80;;;1.70;;
80503;SDS011;69825;51.190;6.808;2023-05-21T09:55:02;1.70;;;1.60;;
80503;SDS011;69825;51.190;6.808;2023-05-21T09:57:31;1.50;;;1.40;;
80503;SDS011;69825;51.190;6.808;2023-05-21T09:59:56;1.58;;;1.48;;
80503;SDS011;69825;51.190;6.808;2023-05-21T10:02:22;1.48;;;1.40;;
80503;SDS011;69825;51.190;6.808;2023-05-21T10:04:49;1.50;;;1.50;;
80503;SDS011;69825;51.190;6.808;2023-05-21T10:07:18;1.40;;;1.40;;
80503;SDS011;69825;51.190;6.808;2023-05-21T10:09:49;1.60;;;1.50;;
80503;SDS011;69825;51.190;6.808;2023-05-21T10:12:21;1.60;;;1.50;;
80503;SDS011;69825;51.190;6.808;2023-05-21T10:14:53;1.63;;;1.58;;
80503;SDS011;69825;51.190;6.808;2023-05-21T10:17:32;1.98;;;1.88;;
80503;SDS011;69825;51.190;6.808;2023-05-21T10:19:58;1.70;;;1.60;;
80503;SDS011;69825;51.190;6.808;2023-05-21T10:22:25;1.33;;;1.33;;
80503;SDS011;69825;51.190;6.808;2023-05-21T10:24:51;1.65;;;1.55;;
80503;SDS011;69825;51.190;6.808;2023-05-21T10:27:17;1.30;;;1.30;;
80503;SDS011;69825;51.190;6.808;2023-05-21T10:29:42;1.60;;;1.50;;
80503;SDS011;69825;51.190;6.808;2023-05-21T10:32:10;1.58;;;1.48;;
80503;SDS011;69825;51.190;6.808;2023-05-21T10:34:37;1.73;;;1.63;;
80503;SDS011;69825;51.190;6.808;2023-05-21T10:37:02;1.73;;;1.63;;
80503;SDS011;69825;51.190;6.808;2023-05-21T10:39:31;1.30;;;1.30;;
80503;SDS011;69825;51.190;6.808;2023-05-21T10:47:17;1.60;;;1.50;;
80503;SDS011;69825;51.190;6.808;2023-05-21T10:58:47;1.60;;;1.50;;
80503;SDS011;69825;51.190;6.808;2023-05-21T11:01:15;1.58;;;1.48;;
80503;SDS011;69825;51.190;6.808;2023-05-21T11:03:43;1.65;;;1.55;;
80503;SDS011;69825;51.190;6.808;2023-05-21T11:06:09;1.60;;;1.50;;
80503;SDS011;69825;51.190;6.808;2023-05-21T11:08:35;1.30;;;1.30;;
80503;SDS011;69825;51.190;6.808;2023-05-21T11:11:01;1.38;;;1.38;;
80503;SDS011;69825;51.190;6.808;2023-05-21T11:13:28;1.73;;;1.63;;
80503;SDS011;69825;51.190;6.808;2023-05-21T11:16:13;1.48;;;1.40;;
80503;SDS011;69825;51.190;6.808;2023-05-21T11:21:05;1.33;;;1.33;;
80503;SDS011;69825;51.190;6.808;2023-05-21T11:26:15;1.67;;;1.58;;
80503;SDS011;69825;51.190;6.808;2023-05-21T11:28:44;1.40;;;1.40;;
80503;SDS011;69825;51.190;6.808;2023-05-21T11:31:23;1.75;;;1.65;;
80503;SDS011;69825;51.190;6.808;2023-05-21T11:36:43;1.50;;;1.40;;
80503;SDS011;69825;51.190;6.808;2023-05-21T11:39:16;1.58;;;1.52;;
80503;SDS011;69825;51.190;6.808;2023-05-21T11:41:49;1.40;;;1.30;;
80503;SDS011;69825;51.190;6.808;2023-05-21T11:44:15;1.52;;;1.42;;
80503;SDS011;69825;51.190;6.808;2023-05-21T11:46:41;1.55;;;1.45;;
80503;SDS011;69825;51.190;6.808;2023-05-21T11:49:07;1.52;;;1.42;;
80503;SDS011;69825;51.190;6.808;2023-05-21T11:51:33;1.40;;;1.40;;
80503;SDS011;69825;51.190;6.808;2023-05-21T11:54:00;1.70;;;1.60;;
80503;SDS011;69825;51.190;6.808;2023-05-21T11:56:25;1.30;;;1.30;;
80503;SDS011;69825;51.190;6.808;2023-05-21T11:58:53;1.42;;;1.40;;
80503;SDS011;69825;51.190;6.808;2023-05-21T12:01:22;1.48;;;1.40;;
80503;SDS011;69825;51.190;6.808;2023-05-21T12:03:48;1.40;;;1.40;;
80503;SDS011;69825;51.190;6.808;2023-05-21T12:06:13;1.45;;;1.38;;
80503;SDS011;69825;51.190;6.808;2023-05-21T12:08:41;1.48;;;1.48;;
80503;SDS011;69825;51.190;6.808;2023-05-21T12:11:07;1.60;;;1.50;;
80503;SDS011;69825;51.190;6.808;2023-05-21T12:13:32;1.63;;;1.52;;
80503;SDS011;69825;51.190;6.808;2023-05-21T12:15:57;1.60;;;1.50;;
80503;SDS011;69825;51.190;6.808;2023-05-21T12:18:23;1.85;;;1.75;;
80503;SDS011;69825;51.190;6.808;2023-05-21T12:20:50;1.80;;;1.70;;
80503;SDS011;69825;51.190;6.808;2023-05-21T12:23:19;1.50;;;1.40;;
80503;SDS011;69825;51.190;6.808;2023-05-21T12:25:47;1.40;;;1.40;;
80503;SDS011;69825;51.190;6.808;2023-05-21T12:28:13;1.50;;;1.40;;
80503;SDS011;69825;51.190;6.808;2023-05-21T12:30:39;1.50;;;1.50;;
80503;SDS011;69825;51.190;6.808;2023-05-21T12:33:05;1.52;;;1.42;;
80503;SDS011;69825;51.190;6.808;2023-05-21T12:35:30;1.50;;;1.40;;
80503;SDS011;69825;51.190;6.808;2023-05-21T12:37:56;1.63;;;1.58;;
80503;SDS011;69825;51.190;6.808;2023-05-21T12:40:33;1.60;;;1.50;;
80503;SDS011;69825;51.190;6.808;2023-05-21T12:43:00;1.73;;;1.63;;
80503;SDS011;69825;51.190;6.808;2023-05-21T12:45:26;2.13;;;2.03;;
80503;SDS011;69825;51.190;6.808;2023-05-21T12:47:53;2.13;;;1.92;;
80503;SDS011;69825;51.190;6.808;2023-05-21T12:50:20;1.95;;;1.85;;
80503;SDS011;69825;51.190;6.808;2023-05-21T12:52:45;2.60;;;2.40;;
80503;SDS011;69825;51.190;6.808;2023-05-21T12:55:14;3.17;;;2.80;;
80503;SDS011;69825;51.190;6.808;2023-05-21T12:57:41;3.13;;;2.92;;
80503;SDS011;69825;51.190;6.808;2023-05-21T13:00:07;3.67;;;3.20;;
80503;SDS011;69825;51.190;6.808;2023-05-21T13:02:38;3.80;;;3.50;;
80503;SDS011;69825;51.190;6.808;2023-05-21T13:05:08;4.15;;;3.85;;
80503;SDS011;69825;51.190;6.808;2023-05-21T13:07:35;3.95;;;3.58;;
80503;SDS011;69825;51.190;6.808;2023-05-21T13:10:02;5.65;;;4.15;;
80503;SDS011;69825;51.190;6.808;2023-05-21T13:12:29;4.32;;;3.92;;
80503;SDS011;69825;51.190;6.808;2023-05-21T13:14:56;4.68;;;4.28;;
80503;SDS011;69825;51.190;6.808;2023-05-21T13:17:24;5.22;;;4.72;;
80503;SDS011;69825;51.190;6.808;2023-05-21T13:20:10;4.90;;;4.47;;
80503;SDS011;69825;51.190;6.808;2023-05-21T13:22:39;5.88;;;5.38;;
80503;SDS011;69825;51.190;6.808;2023-05-21T13:27:42;6.93;;;6.30;;
80503;SDS011;69825;51.190;6.808;2023-05-21T13:30:08;7.13;;;6.43;;
80503;SDS011;69825;51.190;6.808;2023-05-21T13:32:35;7.93;;;6.82;;
80503;SDS011;69825;51.190;6.808;2023-05-21T13:35:01;8.02;;;6.80;;
80503;SDS011;69825;51.190;6.808;2023-05-21T13:37:27;7.68;;;6.80;;
80503;SDS011;69825;51.190;6.808;2023-05-21T13:39:52;8.65;;;6.95;;
80503;SDS011;69825;51.190;6.808;2023-05-21T13:42:18;7.50;;;6.60;;
80503;SDS011;69825;51.190;6.808;2023-05-21T13:44:44;7.47;;;6.78;;
80503;SDS011;69825;51.190;6.808;2023-05-21T13:47:10;7.93;;;7.22;;
80503;SDS011;69825;51.190;6.808;2023-05-21T13:49:36;8.07;;;7.28;;
80503;SDS011;69825;51.190;6.808;2023-05-21T13:52:02;8.23;;;6.88;;
80503;SDS011;69825;51.190;6.808;2023-05-21T13:54:29;8.20;;;7.40;;
80503;SDS011;69825;51.190;6.808;2023-05-21T13:56:54;9.18;;;7.15;;
80503;SDS011;69825;51.190;6.808;2023-05-21T13:59:20;7.88;;;7.07;;
80503;SDS011;69825;51.190;6.808;2023-05-21T14:01:45;8.10;;;7.30;;
80503;SDS011;69825;51.190;6.808;2023-05-21T14:04:12;8.00;;;7.28;;
80503;SDS011;69825;51.190;6.808;2023-05-21T14:06:37;8.18;;;7.38;;
80503;SDS011;69825;51.190;6.808;2023-05-21T14:09:03;7.63;;;6.93;;
80503;SDS011;69825;51.190;6.808;2023-05-21T14:11:29;7.88;;;7.10;;
80503;SDS011;69825;51.190;6.808;2023-05-21T14:13:55;7.93;;;7.22;;
80503;SDS011;69825;51.190;6.808;2023-05-21T14:16:20;9.05;;;7.13;;
80503;SDS011;69825;51.190;6.808;2023-05-21T14:18:48;8.68;;;7.25;;
80503;SDS011;69825;51.190;6.808;2023-05-21T14:21:14;8.60;;;7.70;;
80503;SDS011;69825;51.190;6.808;2023-05-21T14:23:39;8.35;;;7.55;;
80503;SDS011;69825;51.190;6.808;2023-05-21T14:26:04;8.30;;;7.50;;
80503;SDS011;69825;51.190;6.808;2023-05-21T14:28:30;7.80;;;6.97;;
80503;SDS011;69825;51.190;6.808;2023-05-21T14:30:55;9.77;;;8.30;;
80503;SDS011;69825;51.190;6.808;2023-05-21T14:33:21;9.48;;;8.57;;
80503;SDS011;69825;51.190;6.808;2023-05-21T14:35:46;10.25;;;9.25;;
80503;SDS011;69825;51.190;6.808;2023-05-21T14:38:11;10.85;;;9.85;;
80503;SDS011;69825;51.190;6.808;2023-05-21T14:40:37;11.75;;;10.57;;
80503;SDS011;69825;51.190;6.808;2023-05-21T14:43:02;12.10;;;10.88;;
80503;SDS011;69825;51.190;6.808;2023-05-21T14:45:29;11.65;;;10.50;;
80503;SDS011;69825;51.190;6.808;2023-05-21T14:47:56;13.43;;;11.07;;
80503;SDS011;69825;51.190;6.808;2023-05-21T14:50:22;11.98;;;10.88;;
80503;SDS011;69825;51.190;6.808;2023-05-21T14:52:47;11.85;;;10.65;;
80503;SDS011;69825;51.190;6.808;2023-05-21T14:55:13;11.57;;;10.48;;
80503;SDS011;69825;51.190;6.808;2023-05-21T14:57:40;12.70;;;11.40;;
80503;SDS011;69825;51.190;6.808;2023-05-21T15:00:06;11.93;;;10.75;;
80503;SDS011;69825;51.190;6.808;2023-05-21T15:02:32;12.73;;;11.43;;
80503;SDS011;69825;51.190;6.808;2023-05-21T15:04:57;11.80;;;10.70;;
80503;SDS011;69825;51.190;6.808;2023-05-21T15:07:23;11.45;;;10.25;;
80503;SDS011;69825;51.190;6.808;2023-05-21T15:09:48;11.05;;;10.07;;
80503;SDS011;69825;51.190;6.808;2023-05-21T15:12:13;11.48;;;10.38;;
80503;SDS011;69825;51.190;6.808;2023-05-21T15:14:39;11.90;;;10.43;;